Anzahl Datensätze: 288
min. Temperatur: 18.6 °C
max. Temperatur: 27.1 °C
max. Windgeschwindigkeit: 20.9 km/h
Niederschlagsumme: 6.6 mm
| Datum |
Zeit |
Temp °C |
Feuchte % |
Taupunkt °C |
Luftdruck hPa |
Wind km/h |
Windrichtung |
Strahlung w/m² |
Niederschlag mm |
|---|---|---|---|---|---|---|---|---|---|
| 13.08.2023 | 00:04 | 19.6 | 95 | 18.8 | 1017.8 | 0.0 | WSW | 0 | 6.6 |
| 13.08.2023 | 00:08 | 19.6 | 95 | 18.8 | 1017.8 | 0.0 | WSW | 0 | 0.0 |
| 13.08.2023 | 00:14 | 19.5 | 95 | 18.7 | 1017.8 | 0.0 | WSW | 0 | 0.0 |
| 13.08.2023 | 00:18 | 19.6 | 95 | 18.8 | 1017.8 | 0.0 | WSW | 0 | 0.0 |
| 13.08.2023 | 00:24 | 19.6 | 95 | 18.8 | 1017.8 | 0.0 | WSW | 0 | 0.0 |
| 13.08.2023 | 00:28 | 19.6 | 95 | 18.8 | 1017.7 | 0.0 | WSW | 0 | 0.0 |
| 13.08.2023 | 00:34 | 19.6 | 95 | 18.8 | 1017.7 | 0.0 | WSW | 0 | 0.0 |
| 13.08.2023 | 00:38 | 19.4 | 95 | 18.6 | 1017.7 | 0.0 | WSW | 0 | 0.0 |
| 13.08.2023 | 00:44 | 19.3 | 96 | 18.6 | 1017.6 | 0.0 | WSW | 0 | 0.0 |
| 13.08.2023 | 00:48 | 19.2 | 96 | 18.5 | 1017.7 | 0.0 | WSW | 0 | 0.0 |
| 13.08.2023 | 00:54 | 19.1 | 96 | 18.4 | 1017.6 | 0.0 | WSW | 0 | 0.0 |
| 13.08.2023 | 00:58 | 19.0 | 96 | 18.3 | 1017.6 | 0.0 | SSW | 0 | 0.0 |
| 13.08.2023 | 01:04 | 19.0 | 96 | 18.3 | 1017.6 | 0.0 | SSW | 0 | 0.0 |
| 13.08.2023 | 01:08 | 19.0 | 96 | 18.3 | 1017.6 | 0.0 | SSW | 0 | 0.0 |
| 13.08.2023 | 01:14 | 19.0 | 96 | 18.3 | 1017.5 | 0.0 | SSW | 0 | 0.0 |
| 13.08.2023 | 01:18 | 18.9 | 96 | 18.2 | 1017.4 | 0.0 | SSW | 0 | 0.0 |
| 13.08.2023 | 01:24 | 18.9 | 97 | 18.4 | 1017.4 | 0.0 | SSW | 0 | 0.0 |
| 13.08.2023 | 01:28 | 18.9 | 97 | 18.4 | 1017.4 | 0.0 | SSW | 0 | 0.0 |
| 13.08.2023 | 01:34 | 19.0 | 97 | 18.5 | 1017.4 | 0.0 | SSW | 0 | 0.0 |
| 13.08.2023 | 01:38 | 19.1 | 97 | 18.6 | 1017.5 | 0.0 | SSW | 0 | 0.0 |
| 13.08.2023 | 01:44 | 19.1 | 97 | 18.6 | 1017.5 | 1.4 | SSW | 0 | 0.0 |
| 13.08.2023 | 01:48 | 19.2 | 97 | 18.7 | 1017.6 | 1.4 | SSW | 0 | 0.0 |
| 13.08.2023 | 01:54 | 19.2 | 97 | 18.7 | 1017.5 | 1.4 | SSW | 0 | 0.0 |
| 13.08.2023 | 01:58 | 19.3 | 97 | 18.8 | 1017.5 | 1.4 | SSW | 0 | 0.0 |
| 13.08.2023 | 02:04 | 19.4 | 97 | 18.9 | 1017.4 | 1.4 | SSW | 0 | 0.0 |
| 13.08.2023 | 02:08 | 19.4 | 97 | 18.9 | 1017.5 | 1.4 | S | 0 | 0.0 |
| 13.08.2023 | 02:14 | 19.5 | 97 | 19.0 | 1017.4 | 1.4 | S | 0 | 0.0 |
| 13.08.2023 | 02:18 | 19.5 | 97 | 19.0 | 1017.3 | 0.0 | S | 0 | 0.0 |
| 13.08.2023 | 02:24 | 19.4 | 97 | 18.9 | 1017.3 | 0.0 | S | 0 | 0.0 |
| 13.08.2023 | 02:28 | 19.4 | 97 | 18.9 | 1017.4 | 1.4 | SW | 0 | 0.0 |
| 13.08.2023 | 02:34 | 19.5 | 97 | 19.0 | 1017.3 | 1.4 | SSW | 0 | 0.0 |
| 13.08.2023 | 02:38 | 19.5 | 97 | 19.0 | 1017.3 | 1.4 | S | 0 | 0.0 |
| 13.08.2023 | 02:44 | 19.4 | 98 | 19.1 | 1017.3 | 0.0 | SW | 0 | 0.0 |
| 13.08.2023 | 02:48 | 19.4 | 98 | 19.1 | 1017.3 | 0.0 | SW | 0 | 0.0 |
| 13.08.2023 | 02:54 | 19.3 | 97 | 18.8 | 1017.4 | 0.0 | SW | 0 | 0.0 |
| 13.08.2023 | 02:58 | 19.3 | 97 | 18.8 | 1017.4 | 0.0 | SW | 0 | 0.0 |
| 13.08.2023 | 03:04 | 19.2 | 98 | 18.9 | 1017.4 | 0.0 | SW | 0 | 0.0 |
| 13.08.2023 | 03:08 | 19.2 | 98 | 18.9 | 1017.4 | 0.0 | SW | 0 | 0.0 |
| 13.08.2023 | 03:14 | 19.2 | 98 | 18.9 | 1017.4 | 0.0 | SW | 0 | 0.0 |
| 13.08.2023 | 03:18 | 19.2 | 98 | 18.9 | 1017.4 | 0.0 | SW | 0 | 0.0 |
| 13.08.2023 | 03:24 | 19.2 | 98 | 18.9 | 1017.4 | 0.0 | SSW | 0 | 0.0 |
| 13.08.2023 | 03:28 | 19.2 | 98 | 18.9 | 1017.4 | 0.0 | SSW | 0 | 0.0 |
| 13.08.2023 | 03:34 | 19.2 | 98 | 18.9 | 1017.4 | 0.0 | SSW | 0 | 0.0 |
| 13.08.2023 | 03:38 | 19.3 | 98 | 19.0 | 1017.4 | 0.0 | S | 0 | 0.0 |
| 13.08.2023 | 03:44 | 19.3 | 98 | 19.0 | 1017.4 | 0.0 | S | 0 | 0.0 |
| 13.08.2023 | 03:48 | 19.3 | 98 | 19.0 | 1017.5 | 1.4 | SSW | 0 | 0.0 |
| 13.08.2023 | 03:54 | 19.2 | 98 | 18.9 | 1017.5 | 3.2 | SSW | 0 | 0.0 |
| 13.08.2023 | 03:58 | 19.2 | 98 | 18.9 | 1017.5 | 3.2 | SSW | 0 | 0.0 |
| 13.08.2023 | 04:04 | 19.2 | 98 | 18.9 | 1017.4 | 1.4 | S | 0 | 0.0 |
| 13.08.2023 | 04:08 | 19.2 | 98 | 18.9 | 1017.4 | 1.4 | S | 0 | 0.0 |
| 13.08.2023 | 04:14 | 19.2 | 98 | 18.9 | 1017.4 | 1.4 | SSW | 0 | 0.0 |
| 13.08.2023 | 04:18 | 19.2 | 98 | 18.9 | 1017.5 | 0.0 | SW | 0 | 0.0 |
| 13.08.2023 | 04:24 | 19.2 | 98 | 18.9 | 1017.5 | 0.0 | SW | 0 | 0.0 |
| 13.08.2023 | 04:28 | 19.1 | 98 | 18.8 | 1017.6 | 1.4 | SW | 0 | 0.0 |
| 13.08.2023 | 04:34 | 19.1 | 98 | 18.8 | 1017.5 | 1.4 | SSW | 0 | 0.0 |
| 13.08.2023 | 04:38 | 19.0 | 98 | 18.7 | 1017.5 | 3.2 | SW | 0 | 0.0 |
| 13.08.2023 | 04:44 | 19.0 | 98 | 18.7 | 1017.5 | 3.2 | SSW | 0 | 0.0 |
| 13.08.2023 | 04:48 | 19.0 | 98 | 18.7 | 1017.4 | 1.4 | SW | 0 | 0.0 |
| 13.08.2023 | 04:54 | 19.0 | 98 | 18.7 | 1017.3 | 0.0 | SW | 0 | 0.0 |
| 13.08.2023 | 04:58 | 19.0 | 98 | 18.7 | 1017.3 | 0.0 | WSW | 0 | 0.0 |
| 13.08.2023 | 05:04 | 19.0 | 98 | 18.7 | 1017.4 | 0.0 | WSW | 0 | 0.0 |
| 13.08.2023 | 05:08 | 19.0 | 98 | 18.7 | 1017.4 | 0.0 | WSW | 0 | 0.0 |
| 13.08.2023 | 05:14 | 19.0 | 98 | 18.7 | 1017.4 | 0.0 | WSW | 0 | 0.0 |
| 13.08.2023 | 05:18 | 19.0 | 98 | 18.7 | 1017.4 | 0.0 | WSW | 0 | 0.0 |
| 13.08.2023 | 05:24 | 19.0 | 98 | 18.7 | 1017.3 | 0.0 | WSW | 0 | 0.0 |
| 13.08.2023 | 05:28 | 19.0 | 98 | 18.7 | 1017.3 | 0.0 | WSW | 0 | 0.0 |
| 13.08.2023 | 05:34 | 18.9 | 98 | 18.6 | 1017.3 | 0.0 | WSW | 0 | 0.0 |
| 13.08.2023 | 05:38 | 18.9 | 98 | 18.6 | 1017.2 | 0.0 | WSW | 0 | 0.0 |
| 13.08.2023 | 05:44 | 18.9 | 98 | 18.6 | 1017.2 | 0.0 | WSW | 0 | 0.0 |
| 13.08.2023 | 05:48 | 18.9 | 98 | 18.6 | 1017.3 | 0.0 | WSW | 0 | 0.0 |
| 13.08.2023 | 05:54 | 18.8 | 98 | 18.5 | 1017.2 | 0.0 | WSW | 0 | 0.0 |
| 13.08.2023 | 05:58 | 18.8 | 98 | 18.5 | 1017.2 | 0.0 | WSW | 0 | 0.0 |
| 13.08.2023 | 06:04 | 18.8 | 98 | 18.5 | 1017.2 | 0.0 | WSW | 0 | 0.0 |
| 13.08.2023 | 06:08 | 18.7 | 98 | 18.4 | 1017.3 | 0.0 | W | 0 | 0.0 |
| 13.08.2023 | 06:14 | 18.7 | 98 | 18.4 | 1017.4 | 0.0 | W | 0 | 0.0 |
| 13.08.2023 | 06:18 | 18.7 | 98 | 18.4 | 1017.4 | 0.0 | W | 0 | 0.0 |
| 13.08.2023 | 06:24 | 18.6 | 98 | 18.3 | 1017.4 | 0.0 | W | 5 | 0.0 |
| 13.08.2023 | 06:28 | 18.6 | 98 | 18.3 | 1017.4 | 0.0 | WSW | 5 | 0.0 |
| 13.08.2023 | 06:34 | 18.6 | 98 | 18.3 | 1017.4 | 0.0 | WSW | 7 | 0.0 |
| 13.08.2023 | 06:38 | 18.6 | 98 | 18.3 | 1017.4 | 0.0 | WSW | 9 | 0.0 |
| 13.08.2023 | 06:44 | 18.6 | 98 | 18.3 | 1017.3 | 0.0 | WSW | 12 | 0.0 |
| 13.08.2023 | 06:48 | 18.6 | 98 | 18.3 | 1017.3 | 0.0 | WSW | 16 | 0.0 |
| 13.08.2023 | 06:54 | 18.6 | 98 | 18.3 | 1017.4 | 0.0 | WSW | 21 | 0.0 |
| 13.08.2023 | 06:58 | 18.6 | 98 | 18.3 | 1017.4 | 0.0 | WSW | 23 | 0.0 |
| 13.08.2023 | 07:04 | 18.7 | 98 | 18.4 | 1017.4 | 0.0 | WSW | 28 | 0.0 |
| 13.08.2023 | 07:08 | 18.6 | 98 | 18.3 | 1017.4 | 0.0 | WSW | 33 | 0.0 |
| 13.08.2023 | 07:14 | 18.7 | 98 | 18.4 | 1017.5 | 0.0 | WSW | 37 | 0.0 |
| 13.08.2023 | 07:18 | 18.7 | 98 | 18.4 | 1017.5 | 0.0 | WSW | 39 | 0.0 |
| 13.08.2023 | 07:24 | 18.7 | 98 | 18.4 | 1017.3 | 0.0 | OSO | 47 | 0.0 |
| 13.08.2023 | 07:28 | 18.7 | 98 | 18.4 | 1017.3 | 0.0 | OSO | 51 | 0.0 |
| 13.08.2023 | 07:34 | 18.8 | 99 | 18.6 | 1017.3 | 0.0 | NO | 67 | 0.0 |
| 13.08.2023 | 07:38 | 18.8 | 99 | 18.6 | 1017.3 | 0.0 | SW | 70 | 0.0 |
| 13.08.2023 | 07:44 | 18.9 | 99 | 18.7 | 1017.3 | 0.0 | SW | 81 | 0.0 |
| 13.08.2023 | 07:48 | 18.9 | 99 | 18.7 | 1017.3 | 0.0 | SW | 93 | 0.0 |
| 13.08.2023 | 07:54 | 19.1 | 99 | 18.9 | 1017.4 | 0.0 | SW | 105 | 0.0 |
| 13.08.2023 | 07:58 | 19.1 | 99 | 18.9 | 1017.3 | 0.0 | OSO | 118 | 0.0 |
| 13.08.2023 | 08:04 | 19.1 | 99 | 18.9 | 1017.4 | 1.4 | S | 123 | 0.0 |
| 13.08.2023 | 08:08 | 19.2 | 99 | 19.0 | 1017.4 | 1.4 | S | 116 | 0.0 |
| 13.08.2023 | 08:14 | 19.3 | 99 | 19.1 | 1017.5 | 1.4 | S | 113 | 0.0 |
| 13.08.2023 | 08:18 | 19.5 | 99 | 19.3 | 1017.4 | 1.4 | S | 134 | 0.0 |
| 13.08.2023 | 08:24 | 19.6 | 99 | 19.4 | 1017.5 | 0.0 | S | 134 | 0.0 |
| 13.08.2023 | 08:28 | 19.6 | 99 | 19.4 | 1017.5 | 0.0 | S | 123 | 0.0 |
| 13.08.2023 | 08:34 | 19.8 | 98 | 19.5 | 1017.5 | 1.4 | S | 128 | 0.0 |
| 13.08.2023 | 08:38 | 19.8 | 98 | 19.5 | 1017.5 | 1.4 | S | 137 | 0.0 |
| 13.08.2023 | 08:44 | 19.9 | 98 | 19.6 | 1017.5 | 1.4 | S | 146 | 0.0 |
| 13.08.2023 | 08:48 | 19.9 | 98 | 19.6 | 1017.5 | 1.4 | S | 148 | 0.0 |
| 13.08.2023 | 08:54 | 20.1 | 98 | 19.8 | 1017.5 | 1.4 | SSO | 172 | 0.0 |
| 13.08.2023 | 08:58 | 20.2 | 98 | 19.9 | 1017.4 | 0.0 | SSO | 158 | 0.0 |
| 13.08.2023 | 09:04 | 20.1 | 97 | 19.6 | 1017.5 | 0.0 | S | 149 | 0.0 |
| 13.08.2023 | 09:08 | 20.3 | 97 | 19.8 | 1017.5 | 0.0 | S | 153 | 0.0 |
| 13.08.2023 | 09:14 | 20.3 | 97 | 19.8 | 1017.4 | 0.0 | S | 258 | 0.0 |
| 13.08.2023 | 09:18 | 20.4 | 97 | 19.9 | 1017.4 | 0.0 | S | 251 | 0.0 |
| 13.08.2023 | 09:24 | 20.7 | 96 | 20.0 | 1017.4 | 0.0 | S | 251 | 0.0 |
| 13.08.2023 | 09:28 | 20.8 | 96 | 20.1 | 1017.4 | 0.0 | S | 283 | 0.0 |
| 13.08.2023 | 09:34 | 20.9 | 94 | 19.9 | 1017.4 | 0.0 | W | 494 | 0.0 |
| 13.08.2023 | 09:38 | 21.2 | 95 | 20.4 | 1017.5 | 0.0 | S | 403 | 0.0 |
| 13.08.2023 | 09:44 | 21.6 | 94 | 20.6 | 1017.5 | 0.0 | S | 424 | 0.0 |
| 13.08.2023 | 09:48 | 21.7 | 91 | 20.2 | 1017.6 | 0.0 | S | 244 | 0.0 |
| 13.08.2023 | 09:54 | 21.7 | 91 | 20.2 | 1017.6 | 0.0 | S | 329 | 0.0 |
| 13.08.2023 | 09:58 | 21.8 | 91 | 20.3 | 1017.6 | 0.0 | SSW | 316 | 0.0 |
| 13.08.2023 | 10:04 | 22.1 | 91 | 20.6 | 1017.6 | 1.4 | SSW | 264 | 0.0 |
| 13.08.2023 | 10:08 | 21.9 | 89 | 20.0 | 1017.5 | 1.4 | S | 262 | 0.0 |
| 13.08.2023 | 10:14 | 22.1 | 88 | 20.0 | 1017.6 | 0.0 | SSW | 287 | 0.0 |
| 13.08.2023 | 10:18 | 22.2 | 88 | 20.1 | 1017.4 | 1.4 | SSW | 362 | 0.0 |
| 13.08.2023 | 10:24 | 22.2 | 86 | 19.7 | 1017.4 | 0.0 | SW | 341 | 0.0 |
| 13.08.2023 | 10:28 | 22.6 | 86 | 20.1 | 1017.3 | 0.0 | S | 649 | 0.0 |
| 13.08.2023 | 10:34 | 22.9 | 79 | 19.1 | 1017.4 | 1.4 | S | 696 | 0.0 |
| 13.08.2023 | 10:38 | 23.4 | 79 | 19.5 | 1017.3 | 0.0 | NO | 643 | 0.0 |
| 13.08.2023 | 10:44 | 23.7 | 78 | 19.6 | 1017.3 | 0.0 | SW | 635 | 0.0 |
| 13.08.2023 | 10:48 | 24.0 | 78 | 19.9 | 1017.3 | 1.4 | SSW | 833 | 0.0 |
| 13.08.2023 | 10:54 | 23.6 | 74 | 18.7 | 1017.2 | 1.4 | W | 522 | 0.0 |
| 13.08.2023 | 10:58 | 23.5 | 75 | 18.8 | 1017.2 | 0.0 | W | 376 | 0.0 |
| 13.08.2023 | 11:04 | 23.4 | 73 | 18.3 | 1017.2 | 0.0 | N | 352 | 0.0 |
| 13.08.2023 | 11:08 | 23.4 | 75 | 18.7 | 1017.2 | 0.0 | WNW | 304 | 0.0 |
| 13.08.2023 | 11:14 | 23.6 | 75 | 18.9 | 1017.3 | 0.0 | NW | 543 | 0.0 |
| 13.08.2023 | 11:18 | 23.7 | 74 | 18.8 | 1017.2 | 0.0 | WNW | 566 | 0.0 |
| 13.08.2023 | 11:24 | 24.2 | 73 | 19.1 | 1017.1 | 0.0 | O | 478 | 0.0 |
| 13.08.2023 | 11:28 | 24.3 | 69 | 18.2 | 1017.1 | 0.0 | W | 780 | 0.0 |
| 13.08.2023 | 11:34 | 24.1 | 70 | 18.3 | 1017.0 | 0.0 | S | 719 | 0.0 |
| 13.08.2023 | 11:38 | 24.2 | 70 | 18.4 | 1017.0 | 1.4 | SSW | 601 | 0.0 |
| 13.08.2023 | 11:44 | 24.4 | 66 | 17.6 | 1016.9 | 1.4 | O | 643 | 0.0 |
| 13.08.2023 | 11:48 | 24.7 | 68 | 18.4 | 1017.0 | 0.0 | NW | 652 | 0.0 |
| 13.08.2023 | 11:54 | 24.3 | 69 | 18.2 | 1016.9 | 0.0 | WSW | 726 | 0.0 |
| 13.08.2023 | 11:58 | 24.5 | 71 | 18.9 | 1016.9 | 0.0 | WNW | 475 | 0.0 |
| 13.08.2023 | 12:04 | 24.2 | 71 | 18.6 | 1017.0 | 1.4 | WNW | 448 | 0.0 |
| 13.08.2023 | 12:08 | 24.3 | 71 | 18.7 | 1017.0 | 1.4 | WNW | 411 | 0.0 |
| 13.08.2023 | 12:14 | 24.3 | 71 | 18.7 | 1017.0 | 0.0 | S | 346 | 0.0 |
| 13.08.2023 | 12:18 | 24.2 | 70 | 18.4 | 1016.9 | 1.4 | WNW | 364 | 0.0 |
| 13.08.2023 | 12:24 | 24.1 | 72 | 18.7 | 1017.0 | 0.0 | WSW | 265 | 0.0 |
| 13.08.2023 | 12:28 | 24.1 | 71 | 18.5 | 1016.9 | 0.0 | WSW | 274 | 0.0 |
| 13.08.2023 | 12:34 | 24.2 | 71 | 18.6 | 1016.9 | 0.0 | S | 403 | 0.0 |
| 13.08.2023 | 12:38 | 24.2 | 73 | 19.1 | 1017.0 | 0.0 | SSO | 350 | 0.0 |
| 13.08.2023 | 12:44 | 24.6 | 69 | 18.5 | 1016.9 | 0.0 | SSO | 425 | 0.0 |
| 13.08.2023 | 12:48 | 24.6 | 69 | 18.5 | 1017.0 | 0.0 | S | 404 | 0.0 |
| 13.08.2023 | 12:54 | 24.6 | 73 | 19.4 | 1017.0 | 1.4 | WSW | 308 | 0.0 |
| 13.08.2023 | 12:58 | 24.6 | 71 | 19.0 | 1017.0 | 1.4 | WSW | 281 | 0.0 |
| 13.08.2023 | 13:04 | 24.3 | 70 | 18.5 | 1016.9 | 3.2 | SSW | 383 | 0.0 |
| 13.08.2023 | 13:08 | 24.6 | 70 | 18.8 | 1017.0 | 3.2 | SSW | 854 | 0.0 |
| 13.08.2023 | 13:14 | 25.2 | 68 | 18.9 | 1017.0 | 1.4 | S | 1005 | 0.0 |
| 13.08.2023 | 13:18 | 25.3 | 66 | 18.5 | 1016.9 | 1.4 | W | 473 | 0.0 |
| 13.08.2023 | 13:24 | 25.1 | 70 | 19.2 | 1016.8 | 1.4 | NW | 773 | 0.0 |
| 13.08.2023 | 13:28 | 25.3 | 71 | 19.7 | 1016.8 | 1.4 | WSW | 907 | 0.0 |
| 13.08.2023 | 13:34 | 25.7 | 67 | 19.1 | 1016.8 | 1.4 | SSW | 332 | 0.0 |
| 13.08.2023 | 13:38 | 25.4 | 67 | 18.8 | 1016.8 | 3.2 | S | 561 | 0.0 |
| 13.08.2023 | 13:44 | 25.1 | 69 | 19.0 | 1016.7 | 1.4 | WNW | 981 | 0.0 |
| 13.08.2023 | 13:48 | 25.7 | 73 | 20.5 | 1016.5 | 1.4 | WNW | 1013 | 0.0 |
| 13.08.2023 | 13:54 | 25.4 | 69 | 19.3 | 1016.6 | 1.4 | SW | 559 | 0.0 |
| 13.08.2023 | 13:58 | 25.8 | 70 | 19.9 | 1016.6 | 0.0 | SO | 742 | 0.0 |
| 13.08.2023 | 14:04 | 25.8 | 70 | 19.9 | 1016.4 | 1.4 | WSW | 608 | 0.0 |
| 13.08.2023 | 14:08 | 25.7 | 67 | 19.1 | 1016.3 | 1.4 | S | 724 | 0.0 |
| 13.08.2023 | 14:14 | 25.6 | 69 | 19.5 | 1016.3 | 1.4 | O | 654 | 0.0 |
| 13.08.2023 | 14:18 | 26.0 | 67 | 19.4 | 1016.2 | 1.4 | SW | 1093 | 0.0 |
| 13.08.2023 | 14:24 | 26.2 | 67 | 19.6 | 1016.1 | 1.4 | O | 570 | 0.0 |
| 13.08.2023 | 14:28 | 26.2 | 65 | 19.1 | 1016.1 | 3.2 | ONO | 550 | 0.0 |
| 13.08.2023 | 14:34 | 25.9 | 66 | 19.1 | 1016.0 | 1.4 | O | 510 | 0.0 |
| 13.08.2023 | 14:38 | 25.9 | 65 | 18.8 | 1016.1 | 1.4 | NW | 499 | 0.0 |
| 13.08.2023 | 14:44 | 26.1 | 66 | 19.2 | 1016.1 | 0.0 | SO | 939 | 0.0 |
| 13.08.2023 | 14:48 | 26.5 | 68 | 20.1 | 1016.0 | 0.0 | OSO | 889 | 0.0 |
| 13.08.2023 | 14:54 | 27.1 | 64 | 19.7 | 1015.9 | 1.4 | SW | 898 | 0.0 |
| 13.08.2023 | 14:58 | 26.3 | 66 | 19.4 | 1015.9 | 1.4 | SSO | 482 | 0.0 |
| 13.08.2023 | 15:04 | 26.1 | 66 | 19.2 | 1015.9 | 1.4 | O | 352 | 0.0 |
| 13.08.2023 | 15:08 | 26.1 | 66 | 19.2 | 1015.9 | 1.4 | OSO | 329 | 0.0 |
| 13.08.2023 | 15:14 | 26.1 | 64 | 18.8 | 1015.9 | 0.0 | WNW | 353 | 0.0 |
| 13.08.2023 | 15:18 | 26.1 | 66 | 19.2 | 1015.8 | 0.0 | WNW | 362 | 0.0 |
| 13.08.2023 | 15:24 | 26.2 | 63 | 18.6 | 1015.8 | 0.0 | WNW | 271 | 0.0 |
| 13.08.2023 | 15:28 | 25.9 | 66 | 19.1 | 1015.8 | 0.0 | SSW | 195 | 0.0 |
| 13.08.2023 | 15:34 | 25.7 | 68 | 19.3 | 1015.8 | 0.0 | WSW | 276 | 0.0 |
| 13.08.2023 | 15:38 | 25.7 | 66 | 18.9 | 1015.7 | 0.0 | SSW | 357 | 0.0 |
| 13.08.2023 | 15:44 | 25.8 | 68 | 19.4 | 1015.7 | 0.0 | SSW | 360 | 0.0 |
| 13.08.2023 | 15:48 | 26.0 | 68 | 19.6 | 1015.6 | 0.0 | S | 380 | 0.0 |
| 13.08.2023 | 15:54 | 26.1 | 67 | 19.5 | 1015.6 | 0.0 | NNW | 364 | 0.0 |
| 13.08.2023 | 15:58 | 26.1 | 69 | 20.0 | 1015.5 | 1.4 | O | 408 | 0.0 |
| 13.08.2023 | 16:04 | 26.3 | 69 | 20.2 | 1015.3 | 3.2 | OSO | 422 | 0.0 |
| 13.08.2023 | 16:08 | 26.4 | 68 | 20.0 | 1015.3 | 4.7 | SO | 446 | 0.0 |
| 13.08.2023 | 16:14 | 26.8 | 66 | 19.9 | 1015.3 | 4.7 | S | 786 | 0.0 |
| 13.08.2023 | 16:18 | 26.5 | 68 | 20.1 | 1015.4 | 3.2 | SSW | 536 | 0.0 |
| 13.08.2023 | 16:24 | 26.2 | 67 | 19.6 | 1015.3 | 1.4 | SSO | 251 | 0.0 |
| 13.08.2023 | 16:28 | 26.0 | 66 | 19.2 | 1015.3 | 1.4 | W | 207 | 0.0 |
| 13.08.2023 | 16:34 | 25.7 | 70 | 19.8 | 1015.3 | 0.0 | SSW | 202 | 0.0 |
| 13.08.2023 | 16:38 | 25.8 | 69 | 19.7 | 1015.4 | 0.0 | SSW | 190 | 0.0 |
| 13.08.2023 | 16:44 | 25.9 | 68 | 19.5 | 1015.4 | 1.4 | S | 202 | 0.0 |
| 13.08.2023 | 16:48 | 25.9 | 68 | 19.5 | 1015.4 | 1.4 | SW | 253 | 0.0 |
| 13.08.2023 | 16:54 | 26.1 | 69 | 20.0 | 1015.4 | 0.0 | SSO | 221 | 0.0 |
| 13.08.2023 | 16:58 | 26.1 | 70 | 20.2 | 1015.3 | 0.0 | SSW | 406 | 0.0 |
| 13.08.2023 | 17:04 | 26.0 | 67 | 19.4 | 1015.3 | 1.4 | SSO | 199 | 0.0 |
| 13.08.2023 | 17:08 | 25.9 | 68 | 19.5 | 1015.3 | 1.4 | SSO | 163 | 0.0 |
| 13.08.2023 | 17:14 | 25.8 | 71 | 20.1 | 1015.3 | 1.4 | S | 153 | 0.0 |
| 13.08.2023 | 17:18 | 25.6 | 71 | 19.9 | 1015.3 | 1.4 | S | 120 | 0.0 |
| 13.08.2023 | 17:24 | 25.3 | 72 | 19.9 | 1015.2 | 1.4 | SSO | 120 | 0.0 |
| 13.08.2023 | 17:28 | 25.3 | 73 | 20.1 | 1015.2 | 1.4 | SSO | 142 | 0.0 |
| 13.08.2023 | 17:34 | 25.3 | 72 | 19.9 | 1015.2 | 0.0 | SSO | 181 | 0.0 |
| 13.08.2023 | 17:38 | 25.3 | 73 | 20.1 | 1015.1 | 0.0 | SSO | 183 | 0.0 |
| 13.08.2023 | 17:44 | 25.3 | 71 | 19.7 | 1015.1 | 0.0 | S | 91 | 0.0 |
| 13.08.2023 | 17:48 | 25.2 | 73 | 20.0 | 1015.1 | 0.0 | SSO | 77 | 0.0 |
| 13.08.2023 | 17:54 | 25.1 | 72 | 19.7 | 1015.1 | 0.0 | S | 116 | 0.0 |
| 13.08.2023 | 17:58 | 25.1 | 72 | 19.7 | 1015.1 | 0.0 | S | 127 | 0.0 |
| 13.08.2023 | 18:04 | 25.1 | 72 | 19.7 | 1015.0 | 0.0 | SSO | 121 | 0.0 |
| 13.08.2023 | 18:08 | 25.0 | 71 | 19.4 | 1015.0 | 0.0 | SSO | 123 | 0.0 |
| 13.08.2023 | 18:14 | 25.0 | 72 | 19.6 | 1015.0 | 0.0 | S | 127 | 0.0 |
| 13.08.2023 | 18:18 | 25.1 | 72 | 19.7 | 1015.0 | 0.0 | S | 123 | 0.0 |
| 13.08.2023 | 18:24 | 25.2 | 72 | 19.8 | 1015.0 | 0.0 | S | 118 | 0.0 |
| 13.08.2023 | 18:28 | 25.2 | 71 | 19.6 | 1015.0 | 0.0 | S | 116 | 0.0 |
| 13.08.2023 | 18:34 | 25.1 | 71 | 19.5 | 1014.9 | 0.0 | S | 120 | 0.0 |
| 13.08.2023 | 18:38 | 25.1 | 71 | 19.5 | 1014.8 | 0.0 | S | 127 | 0.0 |
| 13.08.2023 | 18:44 | 25.2 | 71 | 19.6 | 1014.8 | 0.0 | S | 130 | 0.0 |
| 13.08.2023 | 18:48 | 25.2 | 70 | 19.3 | 1014.8 | 0.0 | S | 128 | 0.0 |
| 13.08.2023 | 18:54 | 25.2 | 71 | 19.6 | 1014.8 | 0.0 | S | 148 | 0.0 |
| 13.08.2023 | 18:58 | 25.1 | 73 | 19.9 | 1014.8 | 0.0 | S | 127 | 0.0 |
| 13.08.2023 | 19:04 | 25.1 | 72 | 19.7 | 1014.7 | 0.0 | S | 118 | 0.0 |
| 13.08.2023 | 19:08 | 25.2 | 72 | 19.8 | 1014.7 | 0.0 | S | 134 | 0.0 |
| 13.08.2023 | 19:14 | 25.2 | 71 | 19.6 | 1014.7 | 0.0 | S | 104 | 0.0 |
| 13.08.2023 | 19:18 | 25.1 | 71 | 19.5 | 1014.7 | 0.0 | S | 93 | 0.0 |
| 13.08.2023 | 19:24 | 25.1 | 72 | 19.7 | 1014.7 | 0.0 | S | 93 | 0.0 |
| 13.08.2023 | 19:28 | 24.9 | 73 | 19.7 | 1014.6 | 0.0 | S | 86 | 0.0 |
| 13.08.2023 | 19:34 | 25.0 | 72 | 19.6 | 1014.6 | 0.0 | O | 123 | 0.0 |
| 13.08.2023 | 19:38 | 25.2 | 73 | 20.0 | 1014.6 | 0.0 | O | 120 | 0.0 |
| 13.08.2023 | 19:44 | 25.2 | 74 | 20.2 | 1014.5 | 0.0 | OSO | 97 | 0.0 |
| 13.08.2023 | 19:48 | 25.0 | 76 | 20.5 | 1014.5 | 0.0 | OSO | 81 | 0.0 |
| 13.08.2023 | 19:54 | 24.8 | 75 | 20.1 | 1014.5 | 0.0 | SSO | 58 | 0.0 |
| 13.08.2023 | 19:58 | 24.9 | 74 | 19.9 | 1014.5 | 0.0 | SSO | 56 | 0.0 |
| 13.08.2023 | 20:04 | 24.8 | 74 | 19.8 | 1014.5 | 0.0 | SSO | 63 | 0.0 |
| 13.08.2023 | 20:08 | 24.7 | 74 | 19.8 | 1014.5 | 0.0 | SSO | 56 | 0.0 |
| 13.08.2023 | 20:14 | 24.8 | 74 | 19.8 | 1014.5 | 0.0 | SSO | 46 | 0.0 |
| 13.08.2023 | 20:18 | 24.6 | 75 | 19.9 | 1014.5 | 0.0 | SSO | 47 | 0.0 |
| 13.08.2023 | 20:24 | 24.2 | 76 | 19.7 | 1014.5 | 0.0 | SSO | 40 | 0.0 |
| 13.08.2023 | 20:28 | 24.2 | 77 | 19.9 | 1014.5 | 0.0 | SSO | 37 | 0.0 |
| 13.08.2023 | 20:34 | 24.1 | 80 | 20.4 | 1014.6 | 0.0 | SSO | 26 | 0.0 |
| 13.08.2023 | 20:38 | 23.7 | 81 | 20.2 | 1014.5 | 0.0 | SSO | 19 | 0.0 |
| 13.08.2023 | 20:44 | 23.4 | 82 | 20.1 | 1014.6 | 0.0 | SSO | 9 | 0.0 |
| 13.08.2023 | 20:48 | 23.2 | 83 | 20.2 | 1014.6 | 0.0 | SSO | 7 | 0.0 |
| 13.08.2023 | 20:54 | 22.9 | 83 | 19.9 | 1014.5 | 0.0 | SSO | 0 | 0.0 |
| 13.08.2023 | 20:58 | 22.7 | 84 | 19.9 | 1014.5 | 0.0 | SSO | 0 | 0.0 |
| 13.08.2023 | 21:04 | 22.7 | 85 | 20.0 | 1014.6 | 0.0 | SSO | 0 | 0.0 |
| 13.08.2023 | 21:08 | 22.6 | 86 | 20.1 | 1014.7 | 0.0 | SSO | 0 | 0.0 |
| 13.08.2023 | 21:14 | 22.3 | 86 | 19.8 | 1014.7 | 0.0 | SSO | 0 | 0.0 |
| 13.08.2023 | 21:18 | 22.1 | 87 | 19.8 | 1014.7 | 0.0 | SSO | 0 | 0.0 |
| 13.08.2023 | 21:24 | 21.7 | 87 | 19.4 | 1014.7 | 0.0 | SSO | 0 | 0.0 |
| 13.08.2023 | 21:28 | 21.6 | 87 | 19.3 | 1014.8 | 0.0 | SSO | 0 | 0.0 |
| 13.08.2023 | 21:34 | 21.4 | 88 | 19.3 | 1014.8 | 0.0 | SSO | 0 | 0.0 |
| 13.08.2023 | 21:38 | 21.4 | 88 | 19.3 | 1014.9 | 0.0 | SSO | 0 | 0.0 |
| 13.08.2023 | 21:44 | 21.4 | 88 | 19.3 | 1014.9 | 0.0 | SSO | 0 | 0.0 |
| 13.08.2023 | 21:48 | 21.6 | 88 | 19.5 | 1014.8 | 0.0 | SSO | 0 | 0.0 |
| 13.08.2023 | 21:54 | 21.6 | 88 | 19.5 | 1014.9 | 0.0 | SSO | 0 | 0.0 |
| 13.08.2023 | 21:58 | 21.6 | 87 | 19.3 | 1014.9 | 0.0 | SSO | 0 | 0.0 |
| 13.08.2023 | 22:04 | 21.7 | 87 | 19.4 | 1014.9 | 0.0 | SSO | 0 | 0.0 |
| 13.08.2023 | 22:08 | 21.7 | 87 | 19.4 | 1015.0 | 0.0 | SSO | 0 | 0.0 |
| 13.08.2023 | 22:14 | 21.7 | 87 | 19.4 | 1015.0 | 0.0 | SSO | 0 | 0.0 |
| 13.08.2023 | 22:18 | 21.6 | 87 | 19.3 | 1014.9 | 0.0 | SSO | 0 | 0.0 |
| 13.08.2023 | 22:24 | 21.5 | 88 | 19.4 | 1014.8 | 0.0 | SSO | 0 | 0.0 |
| 13.08.2023 | 22:28 | 21.4 | 88 | 19.3 | 1014.8 | 0.0 | SSO | 0 | 0.0 |
| 13.08.2023 | 22:34 | 21.2 | 89 | 19.3 | 1014.8 | 0.0 | SSO | 0 | 0.0 |
| 13.08.2023 | 22:38 | 21.1 | 89 | 19.2 | 1014.8 | 0.0 | SSO | 0 | 0.0 |
| 13.08.2023 | 22:44 | 20.8 | 90 | 19.1 | 1014.8 | 0.0 | SSO | 0 | 0.0 |
| 13.08.2023 | 22:48 | 20.8 | 90 | 19.1 | 1014.8 | 0.0 | SSO | 0 | 0.0 |
| 13.08.2023 | 22:54 | 20.6 | 90 | 18.9 | 1014.9 | 0.0 | SSO | 0 | 0.0 |
| 13.08.2023 | 22:58 | 20.4 | 91 | 18.9 | 1014.8 | 0.0 | SSO | 0 | 0.0 |
| 13.08.2023 | 23:04 | 20.4 | 91 | 18.9 | 1014.8 | 0.0 | SSO | 0 | 0.0 |
| 13.08.2023 | 23:08 | 20.4 | 90 | 18.7 | 1014.7 | 0.0 | SSO | 0 | 0.0 |
| 13.08.2023 | 23:14 | 20.3 | 90 | 18.6 | 1014.7 | 0.0 | SSO | 0 | 0.0 |
| 13.08.2023 | 23:18 | 20.2 | 90 | 18.5 | 1014.7 | 0.0 | SSO | 0 | 0.0 |
| 13.08.2023 | 23:24 | 20.1 | 90 | 18.4 | 1014.7 | 0.0 | SSO | 0 | 0.0 |
| 13.08.2023 | 23:28 | 20.1 | 91 | 18.6 | 1014.7 | 0.0 | SSO | 0 | 0.0 |
| 13.08.2023 | 23:34 | 20.2 | 91 | 18.7 | 1014.7 | 0.0 | SSO | 0 | 0.0 |
| 13.08.2023 | 23:38 | 20.2 | 91 | 18.7 | 1014.7 | 0.0 | SSO | 0 | 0.0 |
| 13.08.2023 | 23:44 | 20.4 | 90 | 18.7 | 1014.7 | 0.0 | SSO | 0 | 0.0 |
| 13.08.2023 | 23:48 | 20.4 | 90 | 18.7 | 1014.7 | 0.0 | SSO | 0 | 0.0 |
| 13.08.2023 | 23:54 | 20.3 | 90 | 18.6 | 1014.7 | 0.0 | SSO | 0 | 0.0 |
| 13.08.2023 | 23:58 | 20.3 | 91 | 18.8 | 1014.7 | 0.0 | SSO | 0 | 0.0 |